sensor_id;sensor_type;location;lat;lon;timestamp;P1;durP1;ratioP1;P2;durP2;ratioP2
1751;SDS011;873;47.696;8.068;2023-05-16T00:02:15;5.37;;;3.20;;
1751;SDS011;873;47.696;8.068;2023-05-16T00:04:40;7.13;;;3.57;;
1751;SDS011;873;47.696;8.068;2023-05-16T00:07:06;5.13;;;3.67;;
1751;SDS011;873;47.696;8.068;2023-05-16T00:09:32;3.47;;;3.10;;
1751;SDS011;873;47.696;8.068;2023-05-16T00:11:57;4.00;;;2.90;;
1751;SDS011;873;47.696;8.068;2023-05-16T00:14:23;4.70;;;3.13;;
1751;SDS011;873;47.696;8.068;2023-05-16T00:16:51;3.60;;;2.87;;
1751;SDS011;873;47.696;8.068;2023-05-16T00:19:17;4.43;;;2.90;;
1751;SDS011;873;47.696;8.068;2023-05-16T00:21:44;4.17;;;3.33;;
1751;SDS011;873;47.696;8.068;2023-05-16T00:24:10;4.00;;;3.50;;
1751;SDS011;873;47.696;8.068;2023-05-16T00:26:35;4.87;;;4.23;;
1751;SDS011;873;47.696;8.068;2023-05-16T00:29:01;3.93;;;3.60;;
1751;SDS011;873;47.696;8.068;2023-05-16T00:31:26;4.37;;;2.90;;
1751;SDS011;873;47.696;8.068;2023-05-16T00:33:52;6.17;;;4.20;;
1751;SDS011;873;47.696;8.068;2023-05-16T00:36:19;4.00;;;3.20;;
1751;SDS011;873;47.696;8.068;2023-05-16T00:38:45;5.23;;;4.00;;
1751;SDS011;873;47.696;8.068;2023-05-16T00:41:11;3.87;;;3.50;;
1751;SDS011;873;47.696;8.068;2023-05-16T00:43:36;4.50;;;3.97;;
1751;SDS011;873;47.696;8.068;2023-05-16T00:46:03;8.23;;;4.83;;
1751;SDS011;873;47.696;8.068;2023-05-16T00:48:29;4.77;;;3.73;;
1751;SDS011;873;47.696;8.068;2023-05-16T00:50:54;4.93;;;3.97;;
1751;SDS011;873;47.696;8.068;2023-05-16T00:53:20;4.27;;;3.67;;
1751;SDS011;873;47.696;8.068;2023-05-16T00:55:46;4.93;;;4.13;;
1751;SDS011;873;47.696;8.068;2023-05-16T00:58:12;8.03;;;4.37;;
1751;SDS011;873;47.696;8.068;2023-05-16T01:00:38;4.77;;;3.43;;
1751;SDS011;873;47.696;8.068;2023-05-16T01:03:04;4.57;;;3.83;;
1751;SDS011;873;47.696;8.068;2023-05-16T01:05:29;6.03;;;4.20;;
1751;SDS011;873;47.696;8.068;2023-05-16T01:07:55;5.57;;;4.30;;
1751;SDS011;873;47.696;8.068;2023-05-16T01:10:21;4.93;;;4.30;;
1751;SDS011;873;47.696;8.068;2023-05-16T01:15:29;6.37;;;3.67;;
1751;SDS011;873;47.696;8.068;2023-05-16T01:20:43;5.20;;;4.23;;
1751;SDS011;873;47.696;8.068;2023-05-16T01:23:18;3.40;;;2.70;;
1751;SDS011;873;47.696;8.068;2023-05-16T01:26:21;5.63;;;4.27;;
1751;SDS011;873;47.696;8.068;2023-05-16T01:28:48;8.17;;;4.87;;
1751;SDS011;873;47.696;8.068;2023-05-16T01:31:15;4.83;;;3.57;;
1751;SDS011;873;47.696;8.068;2023-05-16T01:33:41;4.50;;;3.63;;
1751;SDS011;873;47.696;8.068;2023-05-16T01:36:10;4.30;;;3.90;;
1751;SDS011;873;47.696;8.068;2023-05-16T01:44:04;5.80;;;3.77;;
1751;SDS011;873;47.696;8.068;2023-05-16T01:46:33;3.83;;;3.43;;
1751;SDS011;873;47.696;8.068;2023-05-16T01:51:54;4.70;;;3.70;;
1751;SDS011;873;47.696;8.068;2023-05-16T01:54:25;5.40;;;4.40;;
1751;SDS011;873;47.696;8.068;2023-05-16T01:56:55;8.63;;;4.73;;
1751;SDS011;873;47.696;8.068;2023-05-16T01:59:21;5.77;;;4.50;;
1751;SDS011;873;47.696;8.068;2023-05-16T02:01:48;5.60;;;4.30;;
1751;SDS011;873;47.696;8.068;2023-05-16T02:04:13;4.53;;;4.07;;
1751;SDS011;873;47.696;8.068;2023-05-16T02:06:40;4.53;;;4.13;;
1751;SDS011;873;47.696;8.068;2023-05-16T02:09:06;6.17;;;4.13;;
1751;SDS011;873;47.696;8.068;2023-05-16T02:11:32;8.70;;;3.97;;
1751;SDS011;873;47.696;8.068;2023-05-16T02:13:58;4.87;;;4.20;;
1751;SDS011;873;47.696;8.068;2023-05-16T02:16:23;5.03;;;4.53;;
1751;SDS011;873;47.696;8.068;2023-05-16T02:18:49;5.93;;;4.53;;
1751;SDS011;873;47.696;8.068;2023-05-16T02:21:14;11.37;;;4.53;;
1751;SDS011;873;47.696;8.068;2023-05-16T02:23:40;6.33;;;4.23;;
1751;SDS011;873;47.696;8.068;2023-05-16T02:26:05;3.60;;;3.27;;
1751;SDS011;873;47.696;8.068;2023-05-16T02:28:31;6.00;;;4.57;;
1751;SDS011;873;47.696;8.068;2023-05-16T02:30:57;4.73;;;3.87;;
1751;SDS011;873;47.696;8.068;2023-05-16T02:33:24;4.37;;;3.63;;
1751;SDS011;873;47.696;8.068;2023-05-16T02:35:51;4.10;;;3.70;;
1751;SDS011;873;47.696;8.068;2023-05-16T02:38:16;4.90;;;3.87;;
1751;SDS011;873;47.696;8.068;2023-05-16T02:40:42;5.17;;;3.90;;
1751;SDS011;873;47.696;8.068;2023-05-16T02:43:07;4.67;;;4.20;;
1751;SDS011;873;47.696;8.068;2023-05-16T02:45:33;4.00;;;3.30;;
1751;SDS011;873;47.696;8.068;2023-05-16T02:47:59;4.77;;;3.87;;
1751;SDS011;873;47.696;8.068;2023-05-16T02:50:24;4.63;;;4.07;;
1751;SDS011;873;47.696;8.068;2023-05-16T02:52:50;4.90;;;3.67;;
1751;SDS011;873;47.696;8.068;2023-05-16T02:55:16;6.00;;;3.20;;
1751;SDS011;873;47.696;8.068;2023-05-16T02:57:41;4.33;;;3.40;;
1751;SDS011;873;47.696;8.068;2023-05-16T03:00:07;6.10;;;3.80;;
1751;SDS011;873;47.696;8.068;2023-05-16T03:02:35;4.87;;;4.37;;
1751;SDS011;873;47.696;8.068;2023-05-16T03:05:01;6.73;;;3.63;;
1751;SDS011;873;47.696;8.068;2023-05-16T03:07:28;4.63;;;3.97;;
1751;SDS011;873;47.696;8.068;2023-05-16T03:09:53;4.63;;;3.70;;
1751;SDS011;873;47.696;8.068;2023-05-16T03:12:19;4.73;;;3.27;;
1751;SDS011;873;47.696;8.068;2023-05-16T03:14:44;3.90;;;3.50;;
1751;SDS011;873;47.696;8.068;2023-05-16T03:17:10;4.63;;;3.80;;
1751;SDS011;873;47.696;8.068;2023-05-16T03:19:35;5.70;;;4.03;;
1751;SDS011;873;47.696;8.068;2023-05-16T03:22:01;6.47;;;4.57;;
1751;SDS011;873;47.696;8.068;2023-05-16T03:24:27;6.17;;;4.33;;
1751;SDS011;873;47.696;8.068;2023-05-16T03:26:52;5.90;;;4.97;;
1751;SDS011;873;47.696;8.068;2023-05-16T03:29:18;4.77;;;3.37;;
1751;SDS011;873;47.696;8.068;2023-05-16T03:31:43;4.93;;;3.57;;
1751;SDS011;873;47.696;8.068;2023-05-16T03:34:09;5.20;;;4.53;;
1751;SDS011;873;47.696;8.068;2023-05-16T03:36:34;6.57;;;4.33;;
1751;SDS011;873;47.696;8.068;2023-05-16T03:39:00;5.07;;;3.50;;
1751;SDS011;873;47.696;8.068;2023-05-16T03:41:26;4.30;;;3.47;;
1751;SDS011;873;47.696;8.068;2023-05-16T03:43:52;8.67;;;5.30;;
1751;SDS011;873;47.696;8.068;2023-05-16T03:46:17;4.47;;;4.00;;
1751;SDS011;873;47.696;8.068;2023-05-16T03:48:43;6.40;;;4.67;;
1751;SDS011;873;47.696;8.068;2023-05-16T03:51:08;4.23;;;3.37;;
1751;SDS011;873;47.696;8.068;2023-05-16T03:53:33;4.97;;;4.47;;
1751;SDS011;873;47.696;8.068;2023-05-16T03:55:59;6.50;;;4.00;;
1751;SDS011;873;47.696;8.068;2023-05-16T03:58:24;5.77;;;4.33;;
1751;SDS011;873;47.696;8.068;2023-05-16T04:00:50;7.30;;;4.63;;
1751;SDS011;873;47.696;8.068;2023-05-16T04:03:16;9.13;;;5.07;;
1751;SDS011;873;47.696;8.068;2023-05-16T04:05:41;4.40;;;4.00;;
1751;SDS011;873;47.696;8.068;2023-05-16T04:08:07;6.30;;;4.43;;
1751;SDS011;873;47.696;8.068;2023-05-16T04:10:32;6.13;;;4.43;;
1751;SDS011;873;47.696;8.068;2023-05-16T04:12:58;6.53;;;4.23;;
1751;SDS011;873;47.696;8.068;2023-05-16T04:15:23;4.43;;;4.00;;
1751;SDS011;873;47.696;8.068;2023-05-16T04:17:52;6.67;;;4.47;;
1751;SDS011;873;47.696;8.068;2023-05-16T04:20:17;5.10;;;4.00;;
1751;SDS011;873;47.696;8.068;2023-05-16T04:22:45;4.53;;;3.83;;
1751;SDS011;873;47.696;8.068;2023-05-16T04:25:11;6.37;;;4.10;;
1751;SDS011;873;47.696;8.068;2023-05-16T04:27:41;6.10;;;3.77;;
1751;SDS011;873;47.696;8.068;2023-05-16T04:30:07;5.43;;;4.03;;
1751;SDS011;873;47.696;8.068;2023-05-16T04:32:35;5.13;;;3.97;;
1751;SDS011;873;47.696;8.068;2023-05-16T04:35:03;4.63;;;3.70;;
1751;SDS011;873;47.696;8.068;2023-05-16T04:37:29;6.33;;;4.53;;
1751;SDS011;873;47.696;8.068;2023-05-16T04:39:55;4.80;;;4.10;;
1751;SDS011;873;47.696;8.068;2023-05-16T04:42:21;7.33;;;4.77;;
1751;SDS011;873;47.696;8.068;2023-05-16T04:44:51;11.60;;;5.37;;
1751;SDS011;873;47.696;8.068;2023-05-16T04:47:17;6.37;;;4.67;;
1751;SDS011;873;47.696;8.068;2023-05-16T04:49:42;6.90;;;4.77;;
1751;SDS011;873;47.696;8.068;2023-05-16T04:52:08;5.83;;;4.10;;
1751;SDS011;873;47.696;8.068;2023-05-16T04:54:34;5.97;;;4.87;;
1751;SDS011;873;47.696;8.068;2023-05-16T04:57:00;5.87;;;4.57;;
1751;SDS011;873;47.696;8.068;2023-05-16T04:59:26;6.87;;;4.60;;
1751;SDS011;873;47.696;8.068;2023-05-16T05:01:51;6.03;;;4.73;;
1751;SDS011;873;47.696;8.068;2023-05-16T05:04:18;6.57;;;4.40;;
1751;SDS011;873;47.696;8.068;2023-05-16T05:06:43;6.93;;;6.23;;
1751;SDS011;873;47.696;8.068;2023-05-16T05:09:09;4.63;;;3.80;;
1751;SDS011;873;47.696;8.068;2023-05-16T05:11:35;5.23;;;4.40;;
1751;SDS011;873;47.696;8.068;2023-05-16T05:14:00;5.27;;;4.43;;
1751;SDS011;873;47.696;8.068;2023-05-16T05:16:26;5.67;;;4.37;;
1751;SDS011;873;47.696;8.068;2023-05-16T05:18:52;5.43;;;4.43;;
1751;SDS011;873;47.696;8.068;2023-05-16T05:21:17;5.13;;;4.63;;
1751;SDS011;873;47.696;8.068;2023-05-16T05:23:44;6.17;;;4.23;;
1751;SDS011;873;47.696;8.068;2023-05-16T05:26:10;6.17;;;5.23;;
1751;SDS011;873;47.696;8.068;2023-05-16T05:28:36;5.70;;;4.50;;
1751;SDS011;873;47.696;8.068;2023-05-16T05:31:02;6.67;;;4.93;;
1751;SDS011;873;47.696;8.068;2023-05-16T05:33:29;6.83;;;4.80;;
1751;SDS011;873;47.696;8.068;2023-05-16T05:35:55;6.60;;;4.83;;
1751;SDS011;873;47.696;8.068;2023-05-16T05:38:21;6.30;;;4.70;;
1751;SDS011;873;47.696;8.068;2023-05-16T05:40:47;6.97;;;5.07;;
1751;SDS011;873;47.696;8.068;2023-05-16T05:43:13;8.47;;;4.93;;
1751;SDS011;873;47.696;8.068;2023-05-16T05:45:39;9.27;;;4.83;;
1751;SDS011;873;47.696;8.068;2023-05-16T05:48:05;8.10;;;5.57;;
1751;SDS011;873;47.696;8.068;2023-05-16T05:50:30;6.03;;;5.17;;
1751;SDS011;873;47.696;8.068;2023-05-16T05:52:56;7.57;;;5.53;;
1751;SDS011;873;47.696;8.068;2023-05-16T05:55:21;7.00;;;5.17;;
1751;SDS011;873;47.696;8.068;2023-05-16T05:57:47;7.43;;;5.57;;
1751;SDS011;873;47.696;8.068;2023-05-16T06:00:12;6.03;;;5.43;;
1751;SDS011;873;47.696;8.068;2023-05-16T06:02:38;6.27;;;5.10;;
1751;SDS011;873;47.696;8.068;2023-05-16T06:05:04;6.57;;;5.23;;
1751;SDS011;873;47.696;8.068;2023-05-16T06:07:30;7.33;;;5.57;;
1751;SDS011;873;47.696;8.068;2023-05-16T06:09:55;11.67;;;8.50;;
1751;SDS011;873;47.696;8.068;2023-05-16T06:12:21;8.47;;;6.50;;
1751;SDS011;873;47.696;8.068;2023-05-16T06:14:46;7.20;;;5.30;;
1751;SDS011;873;47.696;8.068;2023-05-16T06:17:12;8.33;;;5.37;;
1751;SDS011;873;47.696;8.068;2023-05-16T06:19:37;6.80;;;4.80;;
1751;SDS011;873;47.696;8.068;2023-05-16T06:22:03;6.50;;;5.07;;
1751;SDS011;873;47.696;8.068;2023-05-16T06:24:28;5.87;;;4.30;;
1751;SDS011;873;47.696;8.068;2023-05-16T06:26:54;4.93;;;3.93;;
1751;SDS011;873;47.696;8.068;2023-05-16T06:29:20;5.07;;;3.70;;
1751;SDS011;873;47.696;8.068;2023-05-16T06:31:45;4.83;;;3.63;;
1751;SDS011;873;47.696;8.068;2023-05-16T06:34:11;4.33;;;3.23;;
1751;SDS011;873;47.696;8.068;2023-05-16T06:36:37;3.43;;;2.80;;
1751;SDS011;873;47.696;8.068;2023-05-16T06:39:02;4.37;;;3.07;;
1751;SDS011;873;47.696;8.068;2023-05-16T06:41:29;5.20;;;3.23;;
1751;SDS011;873;47.696;8.068;2023-05-16T06:43:55;3.43;;;2.80;;
1751;SDS011;873;47.696;8.068;2023-05-16T06:46:21;6.20;;;3.43;;
1751;SDS011;873;47.696;8.068;2023-05-16T06:48:46;4.63;;;3.37;;
1751;SDS011;873;47.696;8.068;2023-05-16T06:51:12;5.10;;;4.07;;
1751;SDS011;873;47.696;8.068;2023-05-16T06:53:37;5.23;;;3.77;;
1751;SDS011;873;47.696;8.068;2023-05-16T06:56:03;6.10;;;3.80;;
1751;SDS011;873;47.696;8.068;2023-05-16T06:58:29;5.87;;;4.20;;
1751;SDS011;873;47.696;8.068;2023-05-16T07:00:54;4.33;;;3.23;;
1751;SDS011;873;47.696;8.068;2023-05-16T07:03:20;4.13;;;3.50;;
1751;SDS011;873;47.696;8.068;2023-05-16T07:05:45;5.30;;;3.90;;
1751;SDS011;873;47.696;8.068;2023-05-16T07:08:11;4.30;;;3.07;;
1751;SDS011;873;47.696;8.068;2023-05-16T07:10:36;2.83;;;2.57;;
1751;SDS011;873;47.696;8.068;2023-05-16T07:13:02;2.97;;;2.67;;
1751;SDS011;873;47.696;8.068;2023-05-16T07:15:29;3.40;;;2.27;;
1751;SDS011;873;47.696;8.068;2023-05-16T07:17:55;3.57;;;2.87;;
1751;SDS011;873;47.696;8.068;2023-05-16T07:20:21;3.87;;;2.20;;
1751;SDS011;873;47.696;8.068;2023-05-16T07:22:47;2.63;;;2.10;;
1751;SDS011;873;47.696;8.068;2023-05-16T07:25:13;2.97;;;2.43;;
1751;SDS011;873;47.696;8.068;2023-05-16T07:27:40;3.40;;;2.83;;
1751;SDS011;873;47.696;8.068;2023-05-16T07:30:08;2.93;;;2.10;;
1751;SDS011;873;47.696;8.068;2023-05-16T07:32:34;3.80;;;2.10;;
1751;SDS011;873;47.696;8.068;2023-05-16T07:34:59;4.20;;;2.93;;
1751;SDS011;873;47.696;8.068;2023-05-16T07:37:25;2.67;;;2.17;;
1751;SDS011;873;47.696;8.068;2023-05-16T07:39:50;1.97;;;1.77;;
1751;SDS011;873;47.696;8.068;2023-05-16T07:42:16;2.90;;;1.97;;
1751;SDS011;873;47.696;8.068;2023-05-16T07:44:41;1.97;;;1.60;;
1751;SDS011;873;47.696;8.068;2023-05-16T07:47:07;2.10;;;1.63;;
1751;SDS011;873;47.696;8.068;2023-05-16T07:49:32;2.03;;;1.63;;
1751;SDS011;873;47.696;8.068;2023-05-16T07:51:58;1.57;;;1.37;;
1751;SDS011;873;47.696;8.068;2023-05-16T07:54:23;1.50;;;1.40;;
1751;SDS011;873;47.696;8.068;2023-05-16T07:56:49;1.20;;;1.10;;
1751;SDS011;873;47.696;8.068;2023-05-16T07:59:15;0.93;;;0.80;;
1751;SDS011;873;47.696;8.068;2023-05-16T08:01:40;0.83;;;0.73;;
1751;SDS011;873;47.696;8.068;2023-05-16T08:04:06;1.13;;;1.03;;
1751;SDS011;873;47.696;8.068;2023-05-16T08:06:31;0.43;;;0.43;;
1751;SDS011;873;47.696;8.068;2023-05-16T08:08:58;1.20;;;0.80;;
1751;SDS011;873;47.696;8.068;2023-05-16T08:11:24;0.50;;;0.50;;
1751;SDS011;873;47.696;8.068;2023-05-16T08:13:49;1.20;;;0.67;;
1751;SDS011;873;47.696;8.068;2023-05-16T08:16:15;0.70;;;0.60;;
1751;SDS011;873;47.696;8.068;2023-05-16T08:18:40;0.50;;;0.50;;
1751;SDS011;873;47.696;8.068;2023-05-16T08:21:06;0.87;;;0.70;;
1751;SDS011;873;47.696;8.068;2023-05-16T08:23:33;0.60;;;0.50;;
1751;SDS011;873;47.696;8.068;2023-05-16T08:25:58;0.47;;;0.43;;
1751;SDS011;873;47.696;8.068;2023-05-16T08:28:24;0.40;;;0.23;;
1751;SDS011;873;47.696;8.068;2023-05-16T08:30:50;0.40;;;0.40;;
1751;SDS011;873;47.696;8.068;2023-05-16T08:33:15;0.30;;;0.30;;
1751;SDS011;873;47.696;8.068;2023-05-16T08:35:41;0.37;;;0.30;;
1751;SDS011;873;47.696;8.068;2023-05-16T08:38:08;0.70;;;0.70;;
1751;SDS011;873;47.696;8.068;2023-05-16T08:40:33;0.47;;;0.33;;
1751;SDS011;873;47.696;8.068;2023-05-16T08:42:59;0.50;;;0.50;;
1751;SDS011;873;47.696;8.068;2023-05-16T08:45:25;0.50;;;0.50;;
1751;SDS011;873;47.696;8.068;2023-05-16T08:47:53;0.60;;;0.60;;
1751;SDS011;873;47.696;8.068;2023-05-16T08:50:19;0.67;;;0.60;;
1751;SDS011;873;47.696;8.068;2023-05-16T08:52:45;0.60;;;0.60;;
1751;SDS011;873;47.696;8.068;2023-05-16T08:55:11;0.73;;;0.70;;
1751;SDS011;873;47.696;8.068;2023-05-16T08:57:38;0.93;;;0.70;;
1751;SDS011;873;47.696;8.068;2023-05-16T09:00:06;1.07;;;0.80;;
1751;SDS011;873;47.696;8.068;2023-05-16T09:02:37;1.40;;;0.70;;
1751;SDS011;873;47.696;8.068;2023-05-16T09:05:04;0.97;;;0.77;;
1751;SDS011;873;47.696;8.068;2023-05-16T09:07:30;7.27;;;6.57;;
1751;SDS011;873;47.696;8.068;2023-05-16T09:09:55;1.07;;;0.87;;
1751;SDS011;873;47.696;8.068;2023-05-16T09:12:21;0.60;;;0.60;;
1751;SDS011;873;47.696;8.068;2023-05-16T09:14:46;1.20;;;1.03;;
1751;SDS011;873;47.696;8.068;2023-05-16T09:17:12;1.20;;;0.80;;
1751;SDS011;873;47.696;8.068;2023-05-16T09:19:41;1.03;;;0.80;;
1751;SDS011;873;47.696;8.068;2023-05-16T09:22:08;0.63;;;0.63;;
1751;SDS011;873;47.696;8.068;2023-05-16T09:24:37;1.07;;;0.97;;
1751;SDS011;873;47.696;8.068;2023-05-16T09:27:13;1.00;;;0.80;;
1751;SDS011;873;47.696;8.068;2023-05-16T09:29:41;1.53;;;1.03;;
1751;SDS011;873;47.696;8.068;2023-05-16T09:32:15;1.03;;;0.93;;
1751;SDS011;873;47.696;8.068;2023-05-16T09:34:43;1.57;;;1.30;;
1751;SDS011;873;47.696;8.068;2023-05-16T09:37:10;1.93;;;1.03;;
1751;SDS011;873;47.696;8.068;2023-05-16T09:39:38;2.00;;;0.93;;
1751;SDS011;873;47.696;8.068;2023-05-16T09:42:09;1.13;;;0.60;;
1751;SDS011;873;47.696;8.068;2023-05-16T09:44:36;1.07;;;0.87;;
1751;SDS011;873;47.696;8.068;2023-05-16T09:47:02;0.73;;;0.70;;
1751;SDS011;873;47.696;8.068;2023-05-16T09:49:27;1.70;;;0.77;;
1751;SDS011;873;47.696;8.068;2023-05-16T09:51:53;0.80;;;0.80;;
1751;SDS011;873;47.696;8.068;2023-05-16T09:54:35;1.20;;;0.80;;
1751;SDS011;873;47.696;8.068;2023-05-16T09:57:00;1.10;;;0.87;;
1751;SDS011;873;47.696;8.068;2023-05-16T09:59:28;1.33;;;1.00;;
1751;SDS011;873;47.696;8.068;2023-05-16T10:01:54;1.33;;;0.90;;
1751;SDS011;873;47.696;8.068;2023-05-16T10:04:23;1.53;;;1.20;;
1751;SDS011;873;47.696;8.068;2023-05-16T10:06:49;1.47;;;1.37;;
1751;SDS011;873;47.696;8.068;2023-05-16T10:09:16;1.93;;;1.53;;
1751;SDS011;873;47.696;8.068;2023-05-16T10:11:42;2.10;;;1.70;;
1751;SDS011;873;47.696;8.068;2023-05-16T10:14:10;2.10;;;1.57;;
1751;SDS011;873;47.696;8.068;2023-05-16T10:16:35;2.37;;;2.00;;
1751;SDS011;873;47.696;8.068;2023-05-16T10:19:02;2.30;;;2.07;;
1751;SDS011;873;47.696;8.068;2023-05-16T10:21:28;2.73;;;2.00;;
1751;SDS011;873;47.696;8.068;2023-05-16T10:23:55;2.37;;;1.90;;
1751;SDS011;873;47.696;8.068;2023-05-16T10:26:21;1.77;;;1.60;;
1751;SDS011;873;47.696;8.068;2023-05-16T10:28:47;3.03;;;1.70;;
1751;SDS011;873;47.696;8.068;2023-05-16T10:31:14;1.93;;;1.83;;
1751;SDS011;873;47.696;8.068;2023-05-16T10:33:40;2.20;;;2.00;;
1751;SDS011;873;47.696;8.068;2023-05-16T10:36:07;1.73;;;1.53;;
1751;SDS011;873;47.696;8.068;2023-05-16T10:38:33;1.80;;;1.10;;
1751;SDS011;873;47.696;8.068;2023-05-16T10:40:59;2.97;;;1.70;;
1751;SDS011;873;47.696;8.068;2023-05-16T10:43:26;2.00;;;1.70;;
1751;SDS011;873;47.696;8.068;2023-05-16T10:45:53;1.40;;;1.20;;
1751;SDS011;873;47.696;8.068;2023-05-16T10:48:29;1.63;;;1.47;;
1751;SDS011;873;47.696;8.068;2023-05-16T10:54:15;1.93;;;1.63;;
1751;SDS011;873;47.696;8.068;2023-05-16T10:56:42;2.90;;;1.67;;
1751;SDS011;873;47.696;8.068;2023-05-16T10:59:23;2.00;;;1.73;;
1751;SDS011;873;47.696;8.068;2023-05-16T11:01:51;2.43;;;2.13;;
1751;SDS011;873;47.696;8.068;2023-05-16T11:04:18;2.90;;;1.93;;
1751;SDS011;873;47.696;8.068;2023-05-16T11:06:44;2.70;;;1.93;;
1751;SDS011;873;47.696;8.068;2023-05-16T11:14:34;2.77;;;1.37;;
1751;SDS011;873;47.696;8.068;2023-05-16T11:17:10;2.07;;;1.60;;
1751;SDS011;873;47.696;8.068;2023-05-16T11:24:58;1.87;;;1.53;;
1751;SDS011;873;47.696;8.068;2023-05-16T11:27:26;1.83;;;1.20;;
1751;SDS011;873;47.696;8.068;2023-05-16T11:29:54;1.90;;;1.30;;
1751;SDS011;873;47.696;8.068;2023-05-16T11:32:24;1.77;;;1.50;;
1751;SDS011;873;47.696;8.068;2023-05-16T11:34:50;1.47;;;1.20;;
1751;SDS011;873;47.696;8.068;2023-05-16T11:37:16;1.07;;;1.07;;
1751;SDS011;873;47.696;8.068;2023-05-16T11:39:42;1.63;;;1.20;;
1751;SDS011;873;47.696;8.068;2023-05-16T11:42:08;1.37;;;1.27;;
1751;SDS011;873;47.696;8.068;2023-05-16T11:44:34;1.33;;;1.20;;
1751;SDS011;873;47.696;8.068;2023-05-16T11:46:59;1.23;;;1.10;;
1751;SDS011;873;47.696;8.068;2023-05-16T11:49:27;1.60;;;1.30;;
1751;SDS011;873;47.696;8.068;2023-05-16T11:51:53;2.37;;;1.40;;
1751;SDS011;873;47.696;8.068;2023-05-16T11:54:21;1.60;;;1.37;;
1751;SDS011;873;47.696;8.068;2023-05-16T11:56:48;1.67;;;1.30;;
1751;SDS011;873;47.696;8.068;2023-05-16T11:59:14;1.27;;;1.13;;
1751;SDS011;873;47.696;8.068;2023-05-16T12:01:40;1.40;;;0.97;;
1751;SDS011;873;47.696;8.068;2023-05-16T12:04:07;1.40;;;1.00;;
1751;SDS011;873;47.696;8.068;2023-05-16T12:06:44;1.17;;;1.07;;
1751;SDS011;873;47.696;8.068;2023-05-16T12:09:22;0.77;;;0.77;;
1751;SDS011;873;47.696;8.068;2023-05-16T12:11:47;1.30;;;1.13;;
1751;SDS011;873;47.696;8.068;2023-05-16T12:14:14;1.53;;;0.90;;
1751;SDS011;873;47.696;8.068;2023-05-16T12:16:40;1.43;;;1.03;;
1751;SDS011;873;47.696;8.068;2023-05-16T12:19:07;1.30;;;1.07;;
1751;SDS011;873;47.696;8.068;2023-05-16T12:21:33;1.83;;;0.93;;
1751;SDS011;873;47.696;8.068;2023-05-16T12:24:00;1.20;;;1.10;;
1751;SDS011;873;47.696;8.068;2023-05-16T12:26:27;1.00;;;0.77;;
1751;SDS011;873;47.696;8.068;2023-05-16T12:28:56;1.00;;;0.87;;
1751;SDS011;873;47.696;8.068;2023-05-16T12:31:24;1.57;;;0.90;;
1751;SDS011;873;47.696;8.068;2023-05-16T12:33:52;1.07;;;0.80;;
1751;SDS011;873;47.696;8.068;2023-05-16T12:36:19;1.13;;;0.90;;
1751;SDS011;873;47.696;8.068;2023-05-16T12:38:45;1.37;;;1.10;;
1751;SDS011;873;47.696;8.068;2023-05-16T12:41:16;1.53;;;1.20;;
1751;SDS011;873;47.696;8.068;2023-05-16T12:43:43;1.00;;;0.90;;
1751;SDS011;873;47.696;8.068;2023-05-16T12:46:09;1.90;;;1.07;;
1751;SDS011;873;47.696;8.068;2023-05-16T12:48:36;1.47;;;0.73;;
1751;SDS011;873;47.696;8.068;2023-05-16T12:51:11;0.70;;;0.70;;
1751;SDS011;873;47.696;8.068;2023-05-16T12:53:45;1.90;;;1.00;;
1751;SDS011;873;47.696;8.068;2023-05-16T12:56:11;1.33;;;1.03;;
1751;SDS011;873;47.696;8.068;2023-05-16T12:58:38;1.70;;;1.20;;
1751;SDS011;873;47.696;8.068;2023-05-16T13:01:03;2.50;;;1.73;;
1751;SDS011;873;47.696;8.068;2023-05-16T13:03:30;2.17;;;1.77;;
1751;SDS011;873;47.696;8.068;2023-05-16T13:05:56;2.93;;;1.80;;
1751;SDS011;873;47.696;8.068;2023-05-16T13:08:22;2.97;;;2.07;;
1751;SDS011;873;47.696;8.068;2023-05-16T13:10:48;1.60;;;1.40;;
1751;SDS011;873;47.696;8.068;2023-05-16T13:13:13;2.70;;;1.80;;
1751;SDS011;873;47.696;8.068;2023-05-16T13:15:39;1.47;;;1.37;;
1751;SDS011;873;47.696;8.068;2023-05-16T13:18:06;1.67;;;1.30;;
1751;SDS011;873;47.696;8.068;2023-05-16T13:20:32;1.70;;;1.47;;
1751;SDS011;873;47.696;8.068;2023-05-16T13:22:57;1.77;;;1.37;;
1751;SDS011;873;47.696;8.068;2023-05-16T13:25:23;1.63;;;1.33;;
1751;SDS011;873;47.696;8.068;2023-05-16T13:27:49;1.87;;;1.47;;
1751;SDS011;873;47.696;8.068;2023-05-16T13:30:14;2.97;;;1.77;;
1751;SDS011;873;47.696;8.068;2023-05-16T13:32:40;2.27;;;1.50;;
1751;SDS011;873;47.696;8.068;2023-05-16T13:35:06;2.13;;;1.50;;
1751;SDS011;873;47.696;8.068;2023-05-16T13:37:33;2.67;;;2.00;;
1751;SDS011;873;47.696;8.068;2023-05-16T13:39:59;1.30;;;1.20;;
1751;SDS011;873;47.696;8.068;2023-05-16T13:42:25;1.87;;;1.53;;
1751;SDS011;873;47.696;8.068;2023-05-16T13:44:51;2.23;;;1.60;;
1751;SDS011;873;47.696;8.068;2023-05-16T13:47:16;1.83;;;1.70;;
1751;SDS011;873;47.696;8.068;2023-05-16T13:49:42;2.90;;;1.57;;
1751;SDS011;873;47.696;8.068;2023-05-16T13:52:07;2.27;;;1.57;;
1751;SDS011;873;47.696;8.068;2023-05-16T13:54:33;3.20;;;1.83;;
1751;SDS011;873;47.696;8.068;2023-05-16T13:56:58;2.90;;;2.27;;
1751;SDS011;873;47.696;8.068;2023-05-16T13:59:24;2.77;;;2.33;;
1751;SDS011;873;47.696;8.068;2023-05-16T14:01:49;3.27;;;2.43;;
1751;SDS011;873;47.696;8.068;2023-05-16T14:04:15;4.03;;;2.43;;
1751;SDS011;873;47.696;8.068;2023-05-16T14:06:40;3.23;;;2.23;;
1751;SDS011;873;47.696;8.068;2023-05-16T14:09:06;2.83;;;2.43;;
1751;SDS011;873;47.696;8.068;2023-05-16T14:11:32;3.57;;;2.13;;
1751;SDS011;873;47.696;8.068;2023-05-16T14:13:58;3.03;;;2.17;;
1751;SDS011;873;47.696;8.068;2023-05-16T14:16:23;4.07;;;2.57;;
1751;SDS011;873;47.696;8.068;2023-05-16T14:18:49;3.43;;;2.17;;
1751;SDS011;873;47.696;8.068;2023-05-16T14:21:15;3.03;;;1.83;;
1751;SDS011;873;47.696;8.068;2023-05-16T14:23:41;4.37;;;2.30;;
1751;SDS011;873;47.696;8.068;2023-05-16T14:26:07;3.10;;;1.73;;
1751;SDS011;873;47.696;8.068;2023-05-16T14:28:32;2.77;;;2.10;;
1751;SDS011;873;47.696;8.068;2023-05-16T14:30:58;3.70;;;2.30;;
1751;SDS011;873;47.696;8.068;2023-05-16T14:33:24;5.30;;;2.30;;
1751;SDS011;873;47.696;8.068;2023-05-16T14:35:50;1.87;;;1.67;;
1751;SDS011;873;47.696;8.068;2023-05-16T14:38:16;2.40;;;2.13;;
1751;SDS011;873;47.696;8.068;2023-05-16T14:40:42;2.50;;;1.93;;
1751;SDS011;873;47.696;8.068;2023-05-16T21:15:49;0.50;;;0.20;;
1751;SDS011;873;47.696;8.068;2023-05-16T21:18:15;0.30;;;0.20;;
1751;SDS011;873;47.696;8.068;2023-05-16T21:20:40;0.87;;;0.80;;
1751;SDS011;873;47.696;8.068;2023-05-16T21:23:05;0.30;;;0.30;;
1751;SDS011;873;47.696;8.068;2023-05-16T21:25:31;0.37;;;0.27;;
1751;SDS011;873;47.696;8.068;2023-05-16T21:27:57;0.10;;;0.07;;
1751;SDS011;873;47.696;8.068;2023-05-16T21:30:24;0.47;;;0.37;;
1751;SDS011;873;47.696;8.068;2023-05-16T21:32:49;2.50;;;0.40;;
1751;SDS011;873;47.696;8.068;2023-05-16T21:35:15;0.20;;;0.20;;
1751;SDS011;873;47.696;8.068;2023-05-16T21:37:40;1.07;;;0.70;;
1751;SDS011;873;47.696;8.068;2023-05-16T21:40:06;0.63;;;0.30;;
1751;SDS011;873;47.696;8.068;2023-05-16T21:42:34;0.73;;;0.53;;
1751;SDS011;873;47.696;8.068;2023-05-16T21:45:00;0.63;;;0.47;;
1751;SDS011;873;47.696;8.068;2023-05-16T21:47:26;1.10;;;0.40;;
1751;SDS011;873;47.696;8.068;2023-05-16T21:49:51;1.03;;;0.43;;
1751;SDS011;873;47.696;8.068;2023-05-16T21:52:17;0.97;;;0.27;;
1751;SDS011;873;47.696;8.068;2023-05-16T21:54:42;0.90;;;0.20;;
1751;SDS011;873;47.696;8.068;2023-05-16T21:57:07;0.83;;;0.40;;
1751;SDS011;873;47.696;8.068;2023-05-16T21:59:33;0.97;;;0.33;;
1751;SDS011;873;47.696;8.068;2023-05-16T22:01:58;0.43;;;0.40;;
1751;SDS011;873;47.696;8.068;2023-05-16T22:04:24;0.43;;;0.23;;
1751;SDS011;873;47.696;8.068;2023-05-16T22:06:50;0.97;;;0.40;;
1751;SDS011;873;47.696;8.068;2023-05-16T22:09:15;0.50;;;0.20;;
1751;SDS011;873;47.696;8.068;2023-05-16T22:11:41;0.47;;;0.37;;
1751;SDS011;873;47.696;8.068;2023-05-16T22:14:06;0.20;;;0.17;;
1751;SDS011;873;47.696;8.068;2023-05-16T22:16:32;0.70;;;0.33;;
1751;SDS011;873;47.696;8.068;2023-05-16T22:18:58;0.97;;;0.30;;
1751;SDS011;873;47.696;8.068;2023-05-16T22:21:23;0.83;;;0.30;;
1751;SDS011;873;47.696;8.068;2023-05-16T22:23:49;0.30;;;0.20;;
1751;SDS011;873;47.696;8.068;2023-05-16T22:26:14;0.00;;;0.00;;